sensor_id;sensor_type;location;lat;lon;timestamp;P1;durP1;ratioP1;P2;durP2;ratioP2
35462;SDS011;21578;47.892;9.970;2024-01-11T00:04:13;27.63;;;14.47;;
35462;SDS011;21578;47.892;9.970;2024-01-11T00:09:00;26.03;;;13.13;;
35462;SDS011;21578;47.892;9.970;2024-01-11T00:13:48;27.17;;;13.77;;
35462;SDS011;21578;47.892;9.970;2024-01-11T00:18:35;22.50;;;12.77;;
35462;SDS011;21578;47.892;9.970;2024-01-11T00:23:21;22.60;;;11.47;;
35462;SDS011;21578;47.892;9.970;2024-01-11T00:28:08;22.50;;;11.30;;
35462;SDS011;21578;47.892;9.970;2024-01-11T00:32:56;29.30;;;13.53;;
35462;SDS011;21578;47.892;9.970;2024-01-11T00:37:43;24.87;;;12.63;;
35462;SDS011;21578;47.892;9.970;2024-01-11T00:42:29;23.37;;;12.43;;
35462;SDS011;21578;47.892;9.970;2024-01-11T00:47:16;25.50;;;12.87;;
35462;SDS011;21578;47.892;9.970;2024-01-11T00:52:05;26.53;;;12.37;;
35462;SDS011;21578;47.892;9.970;2024-01-11T00:56:51;22.33;;;12.73;;
35462;SDS011;21578;47.892;9.970;2024-01-11T01:01:38;21.50;;;11.93;;
35462;SDS011;21578;47.892;9.970;2024-01-11T01:06:25;24.20;;;11.93;;
35462;SDS011;21578;47.892;9.970;2024-01-11T01:11:13;24.90;;;11.73;;
35462;SDS011;21578;47.892;9.970;2024-01-11T01:16:00;21.33;;;11.40;;
35462;SDS011;21578;47.892;9.970;2024-01-11T01:20:47;20.00;;;10.77;;
35462;SDS011;21578;47.892;9.970;2024-01-11T01:25:33;19.80;;;10.60;;
35462;SDS011;21578;47.892;9.970;2024-01-11T01:30:21;18.83;;;10.07;;
35462;SDS011;21578;47.892;9.970;2024-01-11T01:35:09;16.37;;;9.07;;
35462;SDS011;21578;47.892;9.970;2024-01-11T01:39:56;16.13;;;8.33;;
35462;SDS011;21578;47.892;9.970;2024-01-11T01:44:42;16.87;;;9.20;;
35462;SDS011;21578;47.892;9.970;2024-01-11T01:49:30;16.50;;;8.77;;
35462;SDS011;21578;47.892;9.970;2024-01-11T01:54:17;15.33;;;8.47;;
35462;SDS011;21578;47.892;9.970;2024-01-11T01:59:06;13.33;;;7.67;;
35462;SDS011;21578;47.892;9.970;2024-01-11T02:03:53;15.30;;;7.77;;
35462;SDS011;21578;47.892;9.970;2024-01-11T02:08:42;13.20;;;7.27;;
35462;SDS011;21578;47.892;9.970;2024-01-11T02:13:31;11.77;;;6.97;;
35462;SDS011;21578;47.892;9.970;2024-01-11T02:18:18;13.37;;;7.27;;
35462;SDS011;21578;47.892;9.970;2024-01-11T02:23:05;13.00;;;7.73;;
35462;SDS011;21578;47.892;9.970;2024-01-11T02:27:59;17.63;;;8.20;;
35462;SDS011;21578;47.892;9.970;2024-01-11T02:32:47;15.20;;;8.10;;
35462;SDS011;21578;47.892;9.970;2024-01-11T02:37:36;16.23;;;8.50;;
35462;SDS011;21578;47.892;9.970;2024-01-11T02:42:23;14.80;;;7.73;;
35462;SDS011;21578;47.892;9.970;2024-01-11T02:47:11;16.13;;;7.50;;
35462;SDS011;21578;47.892;9.970;2024-01-11T02:51:58;16.90;;;8.30;;
35462;SDS011;21578;47.892;9.970;2024-01-11T02:56:45;18.60;;;8.93;;
35462;SDS011;21578;47.892;9.970;2024-01-11T03:01:31;15.80;;;8.80;;
35462;SDS011;21578;47.892;9.970;2024-01-11T03:06:19;17.73;;;8.60;;
35462;SDS011;21578;47.892;9.970;2024-01-11T03:11:07;24.57;;;8.17;;
35462;SDS011;21578;47.892;9.970;2024-01-11T03:15:54;24.40;;;8.87;;
35462;SDS011;21578;47.892;9.970;2024-01-11T03:20:40;25.20;;;13.10;;
35462;SDS011;21578;47.892;9.970;2024-01-11T03:25:30;19.20;;;9.50;;
35462;SDS011;21578;47.892;9.970;2024-01-11T03:30:16;18.77;;;9.00;;
35462;SDS011;21578;47.892;9.970;2024-01-11T03:35:03;18.67;;;9.07;;
35462;SDS011;21578;47.892;9.970;2024-01-11T03:39:51;18.70;;;9.87;;
35462;SDS011;21578;47.892;9.970;2024-01-11T03:44:39;18.23;;;9.63;;
35462;SDS011;21578;47.892;9.970;2024-01-11T03:49:25;19.83;;;8.40;;
35462;SDS011;21578;47.892;9.970;2024-01-11T03:54:12;21.37;;;8.73;;
35462;SDS011;21578;47.892;9.970;2024-01-11T03:58:59;16.40;;;8.60;;
35462;SDS011;21578;47.892;9.970;2024-01-11T04:03:47;44.57;;;9.07;;
35462;SDS011;21578;47.892;9.970;2024-01-11T04:08:34;19.27;;;9.17;;
35462;SDS011;21578;47.892;9.970;2024-01-11T04:13:21;22.80;;;9.20;;
35462;SDS011;21578;47.892;9.970;2024-01-11T04:18:08;26.27;;;9.17;;
35462;SDS011;21578;47.892;9.970;2024-01-11T04:22:56;27.07;;;11.13;;
35462;SDS011;21578;47.892;9.970;2024-01-11T04:27:42;16.80;;;8.57;;
35462;SDS011;21578;47.892;9.970;2024-01-11T04:32:29;23.53;;;10.47;;
35462;SDS011;21578;47.892;9.970;2024-01-11T04:37:16;22.10;;;10.23;;
35462;SDS011;21578;47.892;9.970;2024-01-11T04:42:04;22.27;;;10.27;;
35462;SDS011;21578;47.892;9.970;2024-01-11T04:46:51;19.10;;;8.83;;
35462;SDS011;21578;47.892;9.970;2024-01-11T04:51:37;35.87;;;9.33;;
35462;SDS011;21578;47.892;9.970;2024-01-11T04:56:24;23.37;;;9.10;;
35462;SDS011;21578;47.892;9.970;2024-01-11T05:01:13;21.53;;;8.97;;
35462;SDS011;21578;47.892;9.970;2024-01-11T05:06:00;25.33;;;9.43;;
35462;SDS011;21578;47.892;9.970;2024-01-11T05:10:47;46.03;;;10.00;;
35462;SDS011;21578;47.892;9.970;2024-01-11T05:15:34;16.43;;;8.90;;
35462;SDS011;21578;47.892;9.970;2024-01-11T05:20:22;20.50;;;10.67;;
35462;SDS011;21578;47.892;9.970;2024-01-11T05:25:08;21.60;;;8.53;;
35462;SDS011;21578;47.892;9.970;2024-01-11T05:29:55;18.73;;;8.63;;
35462;SDS011;21578;47.892;9.970;2024-01-11T05:34:42;18.40;;;8.93;;
35462;SDS011;21578;47.892;9.970;2024-01-11T05:39:30;24.83;;;7.17;;
35462;SDS011;21578;47.892;9.970;2024-01-11T05:44:17;18.73;;;9.10;;
35462;SDS011;21578;47.892;9.970;2024-01-11T05:49:04;25.13;;;8.33;;
35462;SDS011;21578;47.892;9.970;2024-01-11T05:53:50;18.53;;;8.87;;
35462;SDS011;21578;47.892;9.970;2024-01-11T05:58:39;16.20;;;7.70;;
35462;SDS011;21578;47.892;9.970;2024-01-11T06:03:26;17.37;;;8.17;;
35462;SDS011;21578;47.892;9.970;2024-01-11T06:08:13;18.30;;;8.67;;
35462;SDS011;21578;47.892;9.970;2024-01-11T06:12:59;20.10;;;8.33;;
35462;SDS011;21578;47.892;9.970;2024-01-11T06:17:47;16.47;;;9.17;;
35462;SDS011;21578;47.892;9.970;2024-01-11T06:22:34;19.73;;;9.47;;
35462;SDS011;21578;47.892;9.970;2024-01-11T06:27:21;21.10;;;9.70;;
35462;SDS011;21578;47.892;9.970;2024-01-11T06:32:08;31.30;;;8.60;;
35462;SDS011;21578;47.892;9.970;2024-01-11T06:36:56;20.70;;;8.43;;
35462;SDS011;21578;47.892;9.970;2024-01-11T06:41:42;19.47;;;8.87;;
35462;SDS011;21578;47.892;9.970;2024-01-11T06:46:29;14.70;;;7.60;;
35462;SDS011;21578;47.892;9.970;2024-01-11T06:51:16;17.70;;;8.73;;
35462;SDS011;21578;47.892;9.970;2024-01-11T06:56:13;25.63;;;8.33;;
35462;SDS011;21578;47.892;9.970;2024-01-11T07:01:00;25.30;;;10.13;;
35462;SDS011;21578;47.892;9.970;2024-01-11T07:05:47;16.90;;;8.70;;
35462;SDS011;21578;47.892;9.970;2024-01-11T07:10:34;20.10;;;8.87;;
35462;SDS011;21578;47.892;9.970;2024-01-11T07:15:22;18.30;;;9.13;;
35462;SDS011;21578;47.892;9.970;2024-01-11T07:20:09;19.70;;;9.13;;
35462;SDS011;21578;47.892;9.970;2024-01-11T07:24:56;18.60;;;8.83;;
35462;SDS011;21578;47.892;9.970;2024-01-11T07:29:43;19.57;;;9.77;;
35462;SDS011;21578;47.892;9.970;2024-01-11T07:34:31;32.30;;;11.13;;
35462;SDS011;21578;47.892;9.970;2024-01-11T07:39:18;20.27;;;9.40;;
35462;SDS011;21578;47.892;9.970;2024-01-11T07:44:07;21.60;;;10.07;;
35462;SDS011;21578;47.892;9.970;2024-01-11T07:48:54;27.73;;;7.60;;
35462;SDS011;21578;47.892;9.970;2024-01-11T07:53:42;18.27;;;8.60;;
35462;SDS011;21578;47.892;9.970;2024-01-11T07:58:28;34.40;;;15.63;;
35462;SDS011;21578;47.892;9.970;2024-01-11T08:03:15;14.60;;;7.60;;
35462;SDS011;21578;47.892;9.970;2024-01-11T08:08:02;13.03;;;6.60;;
35462;SDS011;21578;47.892;9.970;2024-01-11T08:12:50;14.60;;;7.90;;
35462;SDS011;21578;47.892;9.970;2024-01-11T08:17:37;18.57;;;9.97;;
35462;SDS011;21578;47.892;9.970;2024-01-11T08:22:24;12.63;;;6.23;;
35462;SDS011;21578;47.892;9.970;2024-01-11T08:27:10;12.43;;;6.60;;
35462;SDS011;21578;47.892;9.970;2024-01-11T08:31:58;14.87;;;6.93;;
35462;SDS011;21578;47.892;9.970;2024-01-11T08:36:46;10.47;;;5.33;;
35462;SDS011;21578;47.892;9.970;2024-01-11T08:41:33;17.97;;;8.43;;
35462;SDS011;21578;47.892;9.970;2024-01-11T08:46:24;15.37;;;7.13;;
35462;SDS011;21578;47.892;9.970;2024-01-11T08:51:13;18.00;;;6.23;;
35462;SDS011;21578;47.892;9.970;2024-01-11T08:55:59;11.87;;;5.50;;
35462;SDS011;21578;47.892;9.970;2024-01-11T09:00:46;10.60;;;5.80;;
35462;SDS011;21578;47.892;9.970;2024-01-11T09:05:33;14.70;;;7.50;;
35462;SDS011;21578;47.892;9.970;2024-01-11T09:10:21;24.60;;;12.27;;
35462;SDS011;21578;47.892;9.970;2024-01-11T09:15:08;12.80;;;7.60;;
35462;SDS011;21578;47.892;9.970;2024-01-11T09:19:56;11.97;;;6.10;;
35462;SDS011;21578;47.892;9.970;2024-01-11T09:24:42;10.43;;;6.00;;
35462;SDS011;21578;47.892;9.970;2024-01-11T09:29:30;8.17;;;4.67;;
35462;SDS011;21578;47.892;9.970;2024-01-11T09:34:17;8.27;;;5.30;;
35462;SDS011;21578;47.892;9.970;2024-01-11T09:39:04;8.43;;;4.60;;
35462;SDS011;21578;47.892;9.970;2024-01-11T09:43:53;7.93;;;5.20;;
35462;SDS011;21578;47.892;9.970;2024-01-11T09:48:45;10.10;;;5.37;;
35462;SDS011;21578;47.892;9.970;2024-01-11T09:53:33;14.50;;;6.63;;
35462;SDS011;21578;47.892;9.970;2024-01-11T09:58:21;12.67;;;4.77;;
35462;SDS011;21578;47.892;9.970;2024-01-11T10:03:09;12.87;;;6.67;;
35462;SDS011;21578;47.892;9.970;2024-01-11T10:07:57;15.70;;;7.93;;
35462;SDS011;21578;47.892;9.970;2024-01-11T10:12:44;21.47;;;8.70;;
35462;SDS011;21578;47.892;9.970;2024-01-11T10:17:31;16.37;;;6.83;;
35462;SDS011;21578;47.892;9.970;2024-01-11T10:22:17;16.57;;;7.67;;
35462;SDS011;21578;47.892;9.970;2024-01-11T10:27:07;18.77;;;8.57;;
35462;SDS011;21578;47.892;9.970;2024-01-11T10:31:55;20.93;;;8.17;;
35462;SDS011;21578;47.892;9.970;2024-01-11T10:36:41;20.87;;;9.60;;
35462;SDS011;21578;47.892;9.970;2024-01-11T10:41:29;19.30;;;8.97;;
35462;SDS011;21578;47.892;9.970;2024-01-11T10:46:19;21.10;;;9.20;;
35462;SDS011;21578;47.892;9.970;2024-01-11T10:51:12;24.53;;;11.70;;
35462;SDS011;21578;47.892;9.970;2024-01-11T10:56:02;20.10;;;10.27;;
35462;SDS011;21578;47.892;9.970;2024-01-11T11:00:52;31.33;;;14.40;;
35462;SDS011;21578;47.892;9.970;2024-01-11T11:05:41;25.10;;;11.07;;
35462;SDS011;21578;47.892;9.970;2024-01-11T11:10:30;25.70;;;11.13;;
35462;SDS011;21578;47.892;9.970;2024-01-11T11:15:18;23.70;;;10.83;;
35462;SDS011;21578;47.892;9.970;2024-01-11T11:20:07;23.33;;;9.83;;
35462;SDS011;21578;47.892;9.970;2024-01-11T11:25:04;22.90;;;10.97;;
35462;SDS011;21578;47.892;9.970;2024-01-11T11:29:53;24.97;;;12.87;;
35462;SDS011;21578;47.892;9.970;2024-01-11T11:34:39;18.20;;;8.87;;
35462;SDS011;21578;47.892;9.970;2024-01-11T11:39:27;20.03;;;10.60;;
35462;SDS011;21578;47.892;9.970;2024-01-11T11:44:15;19.67;;;9.57;;
35462;SDS011;21578;47.892;9.970;2024-01-11T11:49:02;23.87;;;11.67;;
35462;SDS011;21578;47.892;9.970;2024-01-11T11:53:49;25.80;;;12.13;;
35462;SDS011;21578;47.892;9.970;2024-01-11T11:58:37;23.13;;;10.57;;
35462;SDS011;21578;47.892;9.970;2024-01-11T12:03:28;18.90;;;9.80;;
35462;SDS011;21578;47.892;9.970;2024-01-11T12:08:16;18.43;;;9.90;;
35462;SDS011;21578;47.892;9.970;2024-01-11T12:13:03;16.67;;;8.33;;
35462;SDS011;21578;47.892;9.970;2024-01-11T12:17:50;16.53;;;7.93;;
35462;SDS011;21578;47.892;9.970;2024-01-11T12:22:44;14.47;;;7.77;;
35462;SDS011;21578;47.892;9.970;2024-01-11T12:27:31;17.00;;;8.83;;
35462;SDS011;21578;47.892;9.970;2024-01-11T12:32:18;15.93;;;7.80;;
35462;SDS011;21578;47.892;9.970;2024-01-11T12:37:05;19.03;;;8.43;;
35462;SDS011;21578;47.892;9.970;2024-01-11T12:41:54;28.83;;;10.37;;
35462;SDS011;21578;47.892;9.970;2024-01-11T12:46:42;23.13;;;10.47;;
35462;SDS011;21578;47.892;9.970;2024-01-11T12:51:28;27.33;;;10.27;;
35462;SDS011;21578;47.892;9.970;2024-01-11T12:56:16;18.80;;;8.63;;
35462;SDS011;21578;47.892;9.970;2024-01-11T13:01:05;20.67;;;9.97;;
35462;SDS011;21578;47.892;9.970;2024-01-11T13:05:53;24.50;;;11.37;;
35462;SDS011;21578;47.892;9.970;2024-01-11T13:10:39;22.60;;;10.03;;
35462;SDS011;21578;47.892;9.970;2024-01-11T13:15:26;27.57;;;10.77;;
35462;SDS011;21578;47.892;9.970;2024-01-11T13:20:17;23.47;;;10.03;;
35462;SDS011;21578;47.892;9.970;2024-01-11T13:25:04;22.77;;;10.87;;
35462;SDS011;21578;47.892;9.970;2024-01-11T13:29:51;18.27;;;8.87;;
35462;SDS011;21578;47.892;9.970;2024-01-11T13:34:37;23.13;;;9.93;;
35462;SDS011;21578;47.892;9.970;2024-01-11T13:39:25;19.63;;;9.83;;
35462;SDS011;21578;47.892;9.970;2024-01-11T13:44:12;21.77;;;10.23;;
35462;SDS011;21578;47.892;9.970;2024-01-11T13:48:59;22.13;;;9.80;;
35462;SDS011;21578;47.892;9.970;2024-01-11T13:53:46;21.87;;;10.07;;
35462;SDS011;21578;47.892;9.970;2024-01-11T13:58:34;28.37;;;13.63;;
35462;SDS011;21578;47.892;9.970;2024-01-11T14:03:20;30.37;;;14.27;;
35462;SDS011;21578;47.892;9.970;2024-01-11T14:08:07;29.23;;;12.70;;
35462;SDS011;21578;47.892;9.970;2024-01-11T14:12:54;24.27;;;12.17;;
35462;SDS011;21578;47.892;9.970;2024-01-11T14:17:42;26.70;;;12.17;;
35462;SDS011;21578;47.892;9.970;2024-01-11T14:22:29;28.43;;;12.90;;
35462;SDS011;21578;47.892;9.970;2024-01-11T14:27:16;33.97;;;15.17;;
35462;SDS011;21578;47.892;9.970;2024-01-11T14:32:03;41.03;;;19.40;;
35462;SDS011;21578;47.892;9.970;2024-01-11T14:36:52;32.70;;;11.60;;
35462;SDS011;21578;47.892;9.970;2024-01-11T14:41:38;24.63;;;11.77;;
35462;SDS011;21578;47.892;9.970;2024-01-11T14:46:25;27.17;;;11.87;;
35462;SDS011;21578;47.892;9.970;2024-01-11T14:51:12;26.57;;;12.53;;
35462;SDS011;21578;47.892;9.970;2024-01-11T14:56:00;26.33;;;11.70;;
35462;SDS011;21578;47.892;9.970;2024-01-11T15:00:47;24.47;;;9.07;;
35462;SDS011;21578;47.892;9.970;2024-01-11T15:05:34;22.83;;;11.03;;
35462;SDS011;21578;47.892;9.970;2024-01-11T15:10:21;31.90;;;9.73;;
35462;SDS011;21578;47.892;9.970;2024-01-11T15:15:09;29.20;;;10.97;;
35462;SDS011;21578;47.892;9.970;2024-01-11T15:19:56;29.87;;;12.93;;
35462;SDS011;21578;47.892;9.970;2024-01-11T15:24:42;29.07;;;12.33;;
35462;SDS011;21578;47.892;9.970;2024-01-11T15:29:29;32.40;;;13.13;;
35462;SDS011;21578;47.892;9.970;2024-01-11T15:34:17;20.13;;;10.13;;
35462;SDS011;21578;47.892;9.970;2024-01-11T15:39:04;28.27;;;10.93;;
35462;SDS011;21578;47.892;9.970;2024-01-11T15:43:51;21.90;;;10.07;;
35462;SDS011;21578;47.892;9.970;2024-01-11T15:48:37;19.33;;;10.07;;
35462;SDS011;21578;47.892;9.970;2024-01-11T15:53:25;23.97;;;10.77;;
35462;SDS011;21578;47.892;9.970;2024-01-11T15:58:12;22.97;;;11.10;;
35462;SDS011;21578;47.892;9.970;2024-01-11T16:02:59;25.53;;;12.13;;
35462;SDS011;21578;47.892;9.970;2024-01-11T16:07:45;22.47;;;10.27;;
35462;SDS011;21578;47.892;9.970;2024-01-11T16:12:33;24.57;;;10.63;;
35462;SDS011;21578;47.892;9.970;2024-01-11T16:17:20;21.97;;;10.17;;
35462;SDS011;21578;47.892;9.970;2024-01-11T16:22:07;22.13;;;11.03;;
35462;SDS011;21578;47.892;9.970;2024-01-11T16:26:53;26.40;;;11.70;;
35462;SDS011;21578;47.892;9.970;2024-01-11T16:31:41;25.77;;;11.60;;
35462;SDS011;21578;47.892;9.970;2024-01-11T16:36:28;28.50;;;12.43;;
35462;SDS011;21578;47.892;9.970;2024-01-11T16:41:15;30.43;;;14.07;;
35462;SDS011;21578;47.892;9.970;2024-01-11T16:46:02;26.50;;;13.00;;
35462;SDS011;21578;47.892;9.970;2024-01-11T16:50:50;23.03;;;12.23;;
35462;SDS011;21578;47.892;9.970;2024-01-11T16:55:37;29.47;;;12.40;;
35462;SDS011;21578;47.892;9.970;2024-01-11T17:00:25;31.03;;;15.23;;
35462;SDS011;21578;47.892;9.970;2024-01-11T17:05:12;29.47;;;14.40;;
35462;SDS011;21578;47.892;9.970;2024-01-11T17:10:00;30.00;;;14.93;;
35462;SDS011;21578;47.892;9.970;2024-01-11T17:14:47;36.70;;;15.87;;
35462;SDS011;21578;47.892;9.970;2024-01-11T17:19:33;33.53;;;15.47;;
35462;SDS011;21578;47.892;9.970;2024-01-11T17:24:20;32.30;;;15.47;;
35462;SDS011;21578;47.892;9.970;2024-01-11T17:29:08;29.07;;;14.33;;
35462;SDS011;21578;47.892;9.970;2024-01-11T17:33:55;25.13;;;13.17;;
35462;SDS011;21578;47.892;9.970;2024-01-11T17:38:42;31.83;;;13.27;;
35462;SDS011;21578;47.892;9.970;2024-01-11T17:43:29;31.10;;;14.10;;
35462;SDS011;21578;47.892;9.970;2024-01-11T17:48:17;30.30;;;13.97;;
35462;SDS011;21578;47.892;9.970;2024-01-11T17:53:04;30.83;;;14.07;;
35462;SDS011;21578;47.892;9.970;2024-01-11T17:57:50;32.73;;;14.60;;
35462;SDS011;21578;47.892;9.970;2024-01-11T18:02:37;30.63;;;14.53;;
35462;SDS011;21578;47.892;9.970;2024-01-11T18:07:25;27.50;;;13.73;;
35462;SDS011;21578;47.892;9.970;2024-01-11T18:12:12;29.27;;;13.70;;
35462;SDS011;21578;47.892;9.970;2024-01-11T18:16:59;24.20;;;12.00;;
35462;SDS011;21578;47.892;9.970;2024-01-11T18:21:45;23.67;;;11.53;;
35462;SDS011;21578;47.892;9.970;2024-01-11T18:26:33;26.03;;;11.60;;
35462;SDS011;21578;47.892;9.970;2024-01-11T18:31:20;27.30;;;11.83;;
35462;SDS011;21578;47.892;9.970;2024-01-11T18:36:07;25.87;;;12.27;;
35462;SDS011;21578;47.892;9.970;2024-01-11T18:40:54;23.63;;;10.93;;
35462;SDS011;21578;47.892;9.970;2024-01-11T18:45:42;26.37;;;10.13;;
35462;SDS011;21578;47.892;9.970;2024-01-11T18:50:29;23.93;;;11.20;;
35462;SDS011;21578;47.892;9.970;2024-01-11T18:55:16;25.80;;;12.47;;
35462;SDS011;21578;47.892;9.970;2024-01-11T19:00:03;25.17;;;12.53;;
35462;SDS011;21578;47.892;9.970;2024-01-11T19:04:52;26.97;;;12.10;;
35462;SDS011;21578;47.892;9.970;2024-01-11T19:09:39;22.03;;;11.17;;
35462;SDS011;21578;47.892;9.970;2024-01-11T19:14:25;24.87;;;11.43;;
35462;SDS011;21578;47.892;9.970;2024-01-11T19:19:12;25.70;;;12.10;;
35462;SDS011;21578;47.892;9.970;2024-01-11T19:24:00;25.53;;;12.17;;
35462;SDS011;21578;47.892;9.970;2024-01-11T19:28:47;28.73;;;11.77;;
35462;SDS011;21578;47.892;9.970;2024-01-11T19:33:34;22.50;;;10.93;;
35462;SDS011;21578;47.892;9.970;2024-01-11T19:38:21;21.27;;;10.97;;
35462;SDS011;21578;47.892;9.970;2024-01-11T19:43:09;23.23;;;10.77;;
35462;SDS011;21578;47.892;9.970;2024-01-11T19:47:56;22.33;;;11.10;;
35462;SDS011;21578;47.892;9.970;2024-01-11T19:52:43;23.97;;;10.37;;
35462;SDS011;21578;47.892;9.970;2024-01-11T19:57:29;27.53;;;12.50;;
35462;SDS011;21578;47.892;9.970;2024-01-11T20:02:18;26.77;;;11.50;;
35462;SDS011;21578;47.892;9.970;2024-01-11T20:07:05;24.40;;;11.50;;
35462;SDS011;21578;47.892;9.970;2024-01-11T20:11:52;24.87;;;11.23;;
35462;SDS011;21578;47.892;9.970;2024-01-11T20:16:38;23.20;;;11.17;;
35462;SDS011;21578;47.892;9.970;2024-01-11T20:21:26;23.13;;;10.97;;
35462;SDS011;21578;47.892;9.970;2024-01-11T20:26:13;24.77;;;10.63;;
35462;SDS011;21578;47.892;9.970;2024-01-11T20:31:00;25.80;;;11.70;;
35462;SDS011;21578;47.892;9.970;2024-01-11T20:35:46;26.10;;;11.77;;
35462;SDS011;21578;47.892;9.970;2024-01-11T20:40:35;23.47;;;11.27;;
35462;SDS011;21578;47.892;9.970;2024-01-11T20:45:21;24.57;;;11.70;;
35462;SDS011;21578;47.892;9.970;2024-01-11T20:50:08;24.97;;;11.30;;
35462;SDS011;21578;47.892;9.970;2024-01-11T20:54:55;26.13;;;12.30;;
35462;SDS011;21578;47.892;9.970;2024-01-11T20:59:43;24.60;;;11.53;;
35462;SDS011;21578;47.892;9.970;2024-01-11T21:04:30;26.30;;;12.70;;
35462;SDS011;21578;47.892;9.970;2024-01-11T21:09:17;30.90;;;14.23;;
35462;SDS011;21578;47.892;9.970;2024-01-11T21:14:03;22.37;;;12.13;;
35462;SDS011;21578;47.892;9.970;2024-01-11T21:18:51;23.07;;;11.67;;
35462;SDS011;21578;47.892;9.970;2024-01-11T21:23:38;25.13;;;12.07;;
35462;SDS011;21578;47.892;9.970;2024-01-11T21:28:25;24.70;;;13.23;;
35462;SDS011;21578;47.892;9.970;2024-01-11T21:33:13;28.33;;;13.07;;
35462;SDS011;21578;47.892;9.970;2024-01-11T21:38:02;25.77;;;12.17;;
35462;SDS011;21578;47.892;9.970;2024-01-11T21:42:48;25.30;;;11.70;;
35462;SDS011;21578;47.892;9.970;2024-01-11T21:47:35;42.30;;;20.17;;
35462;SDS011;21578;47.892;9.970;2024-01-11T21:52:22;41.27;;;18.83;;
35462;SDS011;21578;47.892;9.970;2024-01-11T21:57:11;22.33;;;12.13;;
35462;SDS011;21578;47.892;9.970;2024-01-11T22:01:58;22.33;;;10.90;;
35462;SDS011;21578;47.892;9.970;2024-01-11T22:06:44;22.57;;;11.37;;
35462;SDS011;21578;47.892;9.970;2024-01-11T22:11:31;22.70;;;11.37;;
35462;SDS011;21578;47.892;9.970;2024-01-11T22:16:21;21.80;;;11.03;;
35462;SDS011;21578;47.892;9.970;2024-01-11T22:21:07;20.57;;;10.93;;
35462;SDS011;21578;47.892;9.970;2024-01-11T22:25:54;25.70;;;11.87;;
35462;SDS011;21578;47.892;9.970;2024-01-11T22:30:41;24.23;;;12.03;;
35462;SDS011;21578;47.892;9.970;2024-01-11T22:35:29;23.70;;;12.37;;
35462;SDS011;21578;47.892;9.970;2024-01-11T22:40:15;28.50;;;12.87;;
35462;SDS011;21578;47.892;9.970;2024-01-11T22:45:02;30.20;;;14.20;;
35462;SDS011;21578;47.892;9.970;2024-01-11T22:49:49;26.90;;;13.23;;
35462;SDS011;21578;47.892;9.970;2024-01-11T22:54:37;30.40;;;13.83;;
35462;SDS011;21578;47.892;9.970;2024-01-11T22:59:25;25.57;;;13.23;;
35462;SDS011;21578;47.892;9.970;2024-01-11T23:04:12;26.07;;;12.20;;
35462;SDS011;21578;47.892;9.970;2024-01-11T23:08:58;25.73;;;12.37;;
35462;SDS011;21578;47.892;9.970;2024-01-11T23:13:46;25.97;;;12.77;;
35462;SDS011;21578;47.892;9.970;2024-01-11T23:18:33;37.50;;;16.47;;
35462;SDS011;21578;47.892;9.970;2024-01-11T23:23:20;26.83;;;13.17;;
35462;SDS011;21578;47.892;9.970;2024-01-11T23:28:07;25.97;;;11.53;;
35462;SDS011;21578;47.892;9.970;2024-01-11T23:32:55;23.27;;;11.23;;
35462;SDS011;21578;47.892;9.970;2024-01-11T23:37:41;22.60;;;11.37;;
35462;SDS011;21578;47.892;9.970;2024-01-11T23:42:28;26.57;;;12.33;;
35462;SDS011;21578;47.892;9.970;2024-01-11T23:47:15;22.90;;;11.00;;
35462;SDS011;21578;47.892;9.970;2024-01-11T23:52:03;29.87;;;14.67;;
35462;SDS011;21578;47.892;9.970;2024-01-11T23:56:50;25.93;;;12.43;;
